St Solene — FVDG — position and weather

sailwx.info

Track history (hours):
 
Tides and Currents Weather Stations Pressure Air Temp Water Temp Dewpoint Dewpoint Depression Visibility Wind Speed Wind Dir Waves Ship Positions

St Solene

Last reported at 2014-Nov-26 09:27 UTC. Time now 2014-Nov-27 08:10 UTC.
Position N 42°59' E 003°27'.

Length 104 m; draft 6.3 m.

Type: Tanker. MMSI: 226302000.

Date/timePositionNaut miles runAvg speedWind from/ knotsBaromVisibWave heightAir tempDewpointWater temp
2014-Nov-26 09:27N 42°59' E 003°27'1112.5
2014-Nov-26 08:33N 43°01' E 003°42'1712.2
2014-Nov-26 07:09N 43°04' E 004°05'3512.0
2014-Nov-26 04:15N 43°09' E 004°52'7 9.0
2014-Nov-26 03:25N 43°13' E 005°00'910.8
2014-Nov-26 02:33N 43°22' E 004°57'4 3.8
2014-Nov-26 01:33N 43°26' E 004°54'0 0.0
2014-Nov-26 00:33N 43°26' E 004°54'0 0.0
2014-Nov-25 23:33N 43°26' E 004°54'0 0.0
2014-Nov-25 22:30N 43°26' E 004°54'0 0.0
2014-Nov-25 21:33N 43°26' E 004°54'0 0.0
2014-Nov-25 20:31N 43°26' E 004°54'0 0.0
2014-Nov-25 19:25N 43°26' E 004°54'0 0.0
2014-Nov-25 18:31N 43°26' E 004°54'0 0.0
2014-Nov-25 17:31N 43°26' E 004°54'0 0.0
2014-Nov-25 16:31N 43°26' E 004°54'0 0.0
2014-Nov-25 15:25N 43°26' E 004°54'0 0.0
2014-Nov-25 14:31N 43°26' E 004°54'0 0.0
2014-Nov-25 13:25N 43°26' E 004°54'0 0.0
2014-Nov-25 12:32N 43°26' E 004°54'0 0.0
2014-Nov-25 11:20N 43°26' E 004°54'0 0.0
2014-Nov-25 10:28N 43°26' E 004°54'0 0.0
2014-Nov-25 09:16N 43°26' E 004°54'0 0.0
2014-Nov-25 08:22N 43°26' E 004°54'0 0.0
2014-Nov-25 07:28N 43°26' E 004°54'2 2.4
2014-Nov-25 06:33N 43°24' E 004°55'10 9.6
2014-Nov-25 05:33N 43°15' E 005°01'19 9.7
2014-Nov-25 03:33N 43°03' E 005°23'5 4.2
2014-Nov-25 02:26N 43°01' E 005°28'1011.4
2014-Nov-25 01:33N 42°56' E 005°40'1211.7
2014-Nov-25 00:33N 42°50' E 005°54'1111.4
2014-Nov-24 23:33N 42°45' E 006°07'1110.9
2014-Nov-24 22:33N 42°39' E 006°20'  
2014-Nov-21 06:33N 42°37' E 006°16'1212.0
2014-Nov-21 05:33N 42°43' E 006°02'1211.7
2014-Nov-21 04:33N 42°48' E 005°48'1211.8
2014-Nov-21 03:33N 42°54' E 005°33'3511.6
2014-Nov-21 00:33N 43°18' E 004°59'8 8.3
2014-Nov-20 23:33N 43°26' E 004°53'0 0.2
2014-Nov-20 22:30N 43°26' E 004°54'0 0.0
2014-Nov-20 21:30N 43°26' E 004°54'0 0.0
2014-Nov-20 20:24N 43°26' E 004°54'0 0.0
2014-Nov-20 19:24N 43°26' E 004°54'0 0.0
2014-Nov-20 18:30N 43°26' E 004°54'0 0.0
2014-Nov-20 17:30N 43°26' E 004°54'0 0.0
2014-Nov-20 16:18N 43°26' E 004°54'0 0.0
2014-Nov-20 15:30N 43°26' E 004°54'0 0.0
2014-Nov-20 14:30N 43°26' E 004°54'0 0.0
2014-Nov-20 13:30N 43°26' E 004°54'0 0.0
2014-Nov-20 12:30N 43°26' E 004°54'0 0.0
2014-Nov-20 11:24N 43°26' E 004°54'0 0.0
2014-Nov-20 10:33N 43°26' E 004°54'0 0.0
2014-Nov-20 09:24N 43°26' E 004°54'0 0.0
2014-Nov-20 08:24N 43°26' E 004°54'0 0.0
2014-Nov-20 07:30N 43°26' E 004°54'0 0.0
2014-Nov-20 06:33N 43°26' E 004°54'1 0.9
2014-Nov-20 05:33N 43°25' E 004°53'2 1.7
2014-Nov-20 04:33N 43°25' E 004°55'0 0.0
2014-Nov-20 03:34N 43°25' E 004°55'0 0.0
2014-Nov-20 02:34N 43°25' E 004°55'0 0.0
2014-Nov-20 01:33N 43°25' E 004°55'0 0.0
2014-Nov-20 00:33N 43°25' E 004°55'0 0.0
2014-Nov-19 23:34N 43°25' E 004°55'0 0.0
2014-Nov-19 22:33N 43°25' E 004°55'0 0.0
2014-Nov-19 21:34N 43°25' E 004°55'0 0.0
2014-Nov-19 20:33N 43°25' E 004°55'7 7.0
2014-Nov-19 19:33N 43°18' E 004°60'1411.2
2014-Nov-19 18:20N 43°09' E 005°14'1312.4
2014-Nov-19 17:15N 43°05' E 005°31'912.5
2014-Nov-19 16:34N 43°02' E 005°42'1312.7
2014-Nov-19 15:33N 42°58' E 005°59'1111.5
2014-Nov-19 14:34N 42°56' E 006°14'1211.5
2014-Nov-19 13:33N 42°51' E 006°29'9 9.4
2014-Nov-19 12:33N 42°52' E 006°42'12010.6
2014-Nov-19 01:15N 43°07' E 009°25'4 0.2
2014-Nov-18 03:32N 43°10' E 009°21'10012.4
2014-Nov-17 19:28N 42°56' E 007°05'1112.3
2014-Nov-17 18:33N 42°54' E 006°50'1211.9
2014-Nov-17 17:33N 42°53' E 006°34'1211.6
2014-Nov-17 16:34N 42°51' E 006°18'1211.6
2014-Nov-17 15:34N 42°50' E 006°02'1111.2
2014-Nov-17 14:33N 42°48' E 005°47'1211.6
2014-Nov-17 13:34N 42°55' E 005°34'2512.4
2014-Nov-17 11:33N 43°09' E 005°06'1212.1
2014-Nov-17 10:34N 43°20' E 004°59'7 6.9
2014-Nov-17 09:34N 43°26' E 004°54'0 0.0
2014-Nov-17 08:28N 43°26' E 004°54'0 0.0
2014-Nov-17 07:28N 43°26' E 004°54'0 0.0
2014-Nov-17 06:25N 43°26' E 004°54'0 0.0
2014-Nov-17 05:22N 43°26' E 004°54'0 0.0
2014-Nov-17 04:28N 43°26' E 004°54'0 0.0
2014-Nov-17 03:31N 43°26' E 004°54'0 0.0
2014-Nov-17 02:22N 43°26' E 004°54'0 0.0
2014-Nov-17 01:31N 43°26' E 004°54'0 0.0
2014-Nov-17 00:28N 43°26' E 004°54'0 0.0
2014-Nov-16 23:28N 43°26' E 004°54'0 0.0
2014-Nov-16 22:28N 43°26' E 004°54'0 0.0
2014-Nov-16 21:28N 43°26' E 004°54'0 0.0
2014-Nov-16 20:22N 43°26' E 004°54'0 0.0
2014-Nov-16 19:28N 43°26' E 004°54'0 0.0
2014-Nov-16 18:28N 43°26' E 004°54'0 0.0
2014-Nov-16 17:28N 43°26' E 004°54'0 0.0
2014-Nov-16 16:31N 43°26' E 004°54'0 0.0
2014-Nov-16 15:28N 43°26' E 004°54'0 0.0
2014-Nov-16 14:31N 43°26' E 004°54'0 0.0
2014-Nov-16 13:25N 43°26' E 004°54'0 0.1
2014-Nov-16 12:32N 43°26' E 004°54'4 3.6
2014-Nov-16 11:33N 43°24' E 004°58'0 0.0
2014-Nov-16 10:33N 43°24' E 004°58'0 0.0
2014-Nov-16 09:33N 43°24' E 004°58'  
Track history (hours):
 
Tides and Currents Weather Stations Pressure Air Temp Water Temp Dewpoint Dewpoint Depression Visibility Wind Speed Wind Dir Waves Ship Positions

St Solene

Last reported at 2014-Nov-26 09:27 UTC. Time now 2014-Nov-27 08:10 UTC.
Position N 42°59' E 003°27'.

Length 104 m; draft 6.3 m.

Type: Tanker. MMSI: 226302000.

Date/timePositionNaut miles runAvg speedWind from/ knotsBaromVisibWave heightAir tempDewpointWater temp
2014-Nov-26 09:27N 42°59' E 003°27'1112.5
2014-Nov-26 08:33N 43°01' E 003°42'1712.2
2014-Nov-26 07:09N 43°04' E 004°05'3512.0
2014-Nov-26 04:15N 43°09' E 004°52'7 9.0
2014-Nov-26 03:25N 43°13' E 005°00'910.8
2014-Nov-26 02:33N 43°22' E 004°57'4 3.8
2014-Nov-26 01:33N 43°26' E 004°54'0 0.0
2014-Nov-26 00:33N 43°26' E 004°54'0 0.0
2014-Nov-25 23:33N 43°26' E 004°54'0 0.0
2014-Nov-25 22:30N 43°26' E 004°54'0 0.0
2014-Nov-25 21:33N 43°26' E 004°54'0 0.0
2014-Nov-25 20:31N 43°26' E 004°54'0 0.0
2014-Nov-25 19:25N 43°26' E 004°54'0 0.0
2014-Nov-25 18:31N 43°26' E 004°54'0 0.0
2014-Nov-25 17:31N 43°26' E 004°54'0 0.0
2014-Nov-25 16:31N 43°26' E 004°54'0 0.0
2014-Nov-25 15:25N 43°26' E 004°54'0 0.0
2014-Nov-25 14:31N 43°26' E 004°54'0 0.0
2014-Nov-25 13:25N 43°26' E 004°54'0 0.0
2014-Nov-25 12:32N 43°26' E 004°54'0 0.0
2014-Nov-25 11:20N 43°26' E 004°54'0 0.0
2014-Nov-25 10:28N 43°26' E 004°54'0 0.0
2014-Nov-25 09:16N 43°26' E 004°54'0 0.0
2014-Nov-25 08:22N 43°26' E 004°54'0 0.0
2014-Nov-25 07:28N 43°26' E 004°54'2 2.4
2014-Nov-25 06:33N 43°24' E 004°55'10 9.6
2014-Nov-25 05:33N 43°15' E 005°01'19 9.7
2014-Nov-25 03:33N 43°03' E 005°23'5 4.2
2014-Nov-25 02:26N 43°01' E 005°28'1011.4
2014-Nov-25 01:33N 42°56' E 005°40'1211.7
2014-Nov-25 00:33N 42°50' E 005°54'1111.4
2014-Nov-24 23:33N 42°45' E 006°07'1110.9
2014-Nov-24 22:33N 42°39' E 006°20'  
2014-Nov-21 06:33N 42°37' E 006°16'1212.0
2014-Nov-21 05:33N 42°43' E 006°02'1211.7
2014-Nov-21 04:33N 42°48' E 005°48'1211.8
2014-Nov-21 03:33N 42°54' E 005°33'3511.6
2014-Nov-21 00:33N 43°18' E 004°59'8 8.3
2014-Nov-20 23:33N 43°26' E 004°53'0 0.2
2014-Nov-20 22:30N 43°26' E 004°54'0 0.0
2014-Nov-20 21:30N 43°26' E 004°54'0 0.0
2014-Nov-20 20:24N 43°26' E 004°54'0 0.0
2014-Nov-20 19:24N 43°26' E 004°54'0 0.0
2014-Nov-20 18:30N 43°26' E 004°54'0 0.0
2014-Nov-20 17:30N 43°26' E 004°54'0 0.0
2014-Nov-20 16:18N 43°26' E 004°54'0 0.0
2014-Nov-20 15:30N 43°26' E 004°54'0 0.0
2014-Nov-20 14:30N 43°26' E 004°54'0 0.0
2014-Nov-20 13:30N 43°26' E 004°54'0 0.0
2014-Nov-20 12:30N 43°26' E 004°54'0 0.0
2014-Nov-20 11:24N 43°26' E 004°54'0 0.0
2014-Nov-20 10:33N 43°26' E 004°54'0 0.0
2014-Nov-20 09:24N 43°26' E 004°54'0 0.0
2014-Nov-20 08:24N 43°26' E 004°54'0 0.0
2014-Nov-20 07:30N 43°26' E 004°54'0 0.0
2014-Nov-20 06:33N 43°26' E 004°54'1 0.9
2014-Nov-20 05:33N 43°25' E 004°53'2 1.7
2014-Nov-20 04:33N 43°25' E 004°55'0 0.0
2014-Nov-20 03:34N 43°25' E 004°55'0 0.0
2014-Nov-20 02:34N 43°25' E 004°55'0 0.0
2014-Nov-20 01:33N 43°25' E 004°55'0 0.0
2014-Nov-20 00:33N 43°25' E 004°55'0 0.0
2014-Nov-19 23:34N 43°25' E 004°55'0 0.0
2014-Nov-19 22:33N 43°25' E 004°55'0 0.0
2014-Nov-19 21:34N 43°25' E 004°55'0 0.0
2014-Nov-19 20:33N 43°25' E 004°55'7 7.0
2014-Nov-19 19:33N 43°18' E 004°60'1411.2
2014-Nov-19 18:20N 43°09' E 005°14'1312.4
2014-Nov-19 17:15N 43°05' E 005°31'912.5
2014-Nov-19 16:34N 43°02' E 005°42'1312.7
2014-Nov-19 15:33N 42°58' E 005°59'1111.5
2014-Nov-19 14:34N 42°56' E 006°14'1211.5
2014-Nov-19 13:33N 42°51' E 006°29'9 9.4
2014-Nov-19 12:33N 42°52' E 006°42'12010.6
2014-Nov-19 01:15N 43°07' E 009°25'4 0.2
2014-Nov-18 03:32N 43°10' E 009°21'10012.4
2014-Nov-17 19:28N 42°56' E 007°05'1112.3
2014-Nov-17 18:33N 42°54' E 006°50'1211.9
2014-Nov-17 17:33N 42°53' E 006°34'1211.6
2014-Nov-17 16:34N 42°51' E 006°18'1211.6
2014-Nov-17 15:34N 42°50' E 006°02'1111.2
2014-Nov-17 14:33N 42°48' E 005°47'1211.6
2014-Nov-17 13:34N 42°55' E 005°34'2512.4
2014-Nov-17 11:33N 43°09' E 005°06'1212.1
2014-Nov-17 10:34N 43°20' E 004°59'7 6.9
2014-Nov-17 09:34N 43°26' E 004°54'0 0.0
2014-Nov-17 08:28N 43°26' E 004°54'0 0.0
2014-Nov-17 07:28N 43°26' E 004°54'0 0.0
2014-Nov-17 06:25N 43°26' E 004°54'0 0.0
2014-Nov-17 05:22N 43°26' E 004°54'0 0.0
2014-Nov-17 04:28N 43°26' E 004°54'0 0.0
2014-Nov-17 03:31N 43°26' E 004°54'0 0.0
2014-Nov-17 02:22N 43°26' E 004°54'0 0.0
2014-Nov-17 01:31N 43°26' E 004°54'0 0.0
2014-Nov-17 00:28N 43°26' E 004°54'0 0.0
2014-Nov-16 23:28N 43°26' E 004°54'0 0.0
2014-Nov-16 22:28N 43°26' E 004°54'0 0.0
2014-Nov-16 21:28N 43°26' E 004°54'0 0.0
2014-Nov-16 20:22N 43°26' E 004°54'0 0.0
2014-Nov-16 19:28N 43°26' E 004°54'0 0.0
2014-Nov-16 18:28N 43°26' E 004°54'0 0.0
2014-Nov-16 17:28N 43°26' E 004°54'0 0.0
2014-Nov-16 16:31N 43°26' E 004°54'0 0.0
2014-Nov-16 15:28N 43°26' E 004°54'0 0.0
2014-Nov-16 14:31N 43°26' E 004°54'0 0.0
2014-Nov-16 13:25N 43°26' E 004°54'0 0.1
2014-Nov-16 12:32N 43°26' E 004°54'4 3.6
2014-Nov-16 11:33N 43°24' E 004°58'0 0.0
2014-Nov-16 10:33N 43°24' E 004°58'0 0.0
2014-Nov-16 09:33N 43°24' E 004°58'  

Dump ship's entire track history